Startpagina
METAR-TAF:

METAR-TAF

Vliegvelden :

David, Panama

breedte: 08-24N, lengte: 082-25W, hoogte: 29 m

Actueel weer

Dit bericht is 5 uur en het 32 minuten geleden gemaakt, om 03:00 UTC
Wind 2 kt uit variabele richting
Temperatuur 24°C
Vochtigheid 94%
Druk 1012 hPa
Zicht 10 km of meer
Weinig wolken op 2000 ft

METAR: MPDA 210300Z VRB02KT 9999 FEW020 24/23 Q1012

Tijdstip: 03:32 (08:32 UTC)

Verwachting

Dit bericht is 9 uur en het 32 minuten geleden gemaakt, om 23:00 UTC
Verwachting geldig van 21 om 00 UTC tot 21 om 12 UTC
Wind 4 kt uit het zuidzuidwesten
Zicht 10 km of meer
Verspreide wolken op 2000 ft

TAF: MPDA 202300Z 2100/2112 21004KT 9999 SCT020

Waarnemingen en weersverwachtingen van meer dan 4000 vliegvelden (METAR en TAF).

De beschikbare stations zijn de gele en rode punten op de kaart.

Ga met uw muis naar het station om de naam te zien.

Klik dan om waarnemingen en weersverwachtingen te zien.

kaart wijzigen: klik op de groene knoppen met een zwart kruis om in te zoomen, op de groene knop met een streepje om uit te zoomen of op de groene pijlen voor aangrenzende kaarten.


METAR-TAF: